createdAt,value
2017-05-04T00:00:10.030Z,93.51
2017-05-04T00:00:20.118Z,93.32
2017-05-04T00:00:29.922Z,93.13
2017-05-04T00:00:40.010Z,92.95
2017-05-04T00:00:50.105Z,92.66
2017-05-04T00:01:00.193Z,92.76
2017-05-04T00:01:10.289Z,92.76
2017-05-04T00:01:20.101Z,92.85
2017-05-04T00:01:29.902Z,92.85
2017-05-04T00:01:39.990Z,92.85
2017-05-04T00:01:50.103Z,92.66
2017-05-04T00:02:00.191Z,92.47
2017-05-04T00:02:10.280Z,92.38
2017-05-04T00:02:20.086Z,91.72
2017-05-04T00:02:30.177Z,91.44
2017-05-04T00:02:39.984Z,91.25
2017-05-04T00:02:50.075Z,91.16
2017-05-04T00:03:00.164Z,91.06
2017-05-04T00:03:09.972Z,91.44
2017-05-04T00:03:19.783Z,91.82
2017-05-04T00:03:29.881Z,92.1
2017-05-04T00:03:39.973Z,92.38
2017-05-04T00:03:50.067Z,92.57
2017-05-04T00:03:59.868Z,92.38
2017-05-04T00:04:09.957Z,92.29
2017-05-04T00:04:20.050Z,92.19
2017-05-04T00:04:30.145Z,92.29
2017-05-04T00:04:40.239Z,92.29
2017-05-04T00:04:50.332Z,92.29
2017-05-04T00:05:00.424Z,92.47
2017-05-04T00:05:10.228Z,92.47
2017-05-04T00:05:20.032Z,92.38
2017-05-04T00:05:29.841Z,92.19
2017-05-04T00:05:39.933Z,92.1
2017-05-04T00:05:50.024Z,92.19
2017-05-04T00:05:59.824Z,92.38
2017-05-04T00:06:09.629Z,92.47
2017-05-04T00:06:19.431Z,92.57
2017-05-04T00:06:29.525Z,92.57
2017-05-04T00:06:39.612Z,92.57
2017-05-04T00:06:49.703Z,92.38
2017-05-04T00:06:59.815Z,92.1
2017-05-04T00:07:09.907Z,91.72
2017-05-04T00:07:19.995Z,91.44
2017-05-04T00:07:29.799Z,91.25
2017-05-04T00:07:39.889Z,91.25
2017-05-04T00:07:49.984Z,91.25
2017-05-04T00:08:00.073Z,91.35
2017-05-04T00:08:10.190Z,91.35
2017-05-04T00:08:19.996Z,91.25
2017-05-04T00:08:30.089Z,91.16
2017-05-04T00:08:40.184Z,90.78
2017-05-04T00:08:50.276Z,90.68
2017-05-04T00:09:00.372Z,90.68
2017-05-04T00:09:10.168Z,90.87
2017-05-04T00:09:19.981Z,91.06
2017-05-04T00:09:30.071Z,91.25
2017-05-04T00:09:40.163Z,91.16
2017-05-04T00:09:49.681Z,91.25
2017-05-04T00:09:59.764Z,91.25
2017-05-04T00:10:09.570Z,91.53
2017-05-04T00:10:19.658Z,91.63
2017-05-04T00:10:29.745Z,91.72
2017-05-04T00:10:39.832Z,91.72
2017-05-04T00:10:49.920Z,91.72
2017-05-04T00:11:00.012Z,91.77
2017-05-04T00:11:10.107Z,91.72
2017-05-04T00:11:19.906Z,91.58
2017-05-04T00:11:29.709Z,91.58
2017-05-04T00:11:39.803Z,91.49
2017-05-04T00:11:49.896Z,91.39
2017-05-04T00:11:59.985Z,91.3
2017-05-04T00:12:10.077Z,91.2
2017-05-04T00:12:20.166Z,91.3
2017-05-04T00:12:30.257Z,91.02
2017-05-04T00:12:40.347Z,90.73
2017-05-04T00:12:50.435Z,90.83
2017-05-04T00:13:00.520Z,90.73
2017-05-04T00:13:10.326Z,90.64
2017-05-04T00:13:20.427Z,90.55
2017-05-04T00:13:30.522Z,90.45
2017-05-04T00:13:40.611Z,90.45
2017-05-04T00:13:50.699Z,90.36
2017-05-04T00:14:00.793Z,90.26
2017-05-04T00:14:09.731Z,90.07
2017-05-04T00:14:19.816Z,89.88
2017-05-04T00:14:29.913Z,89.69
2017-05-04T00:14:40.007Z,89.51
2017-05-04T00:14:50.102Z,89.22
2017-05-04T00:15:00.192Z,88.84
2017-05-04T00:15:09.997Z,88.65
2017-05-04T00:15:20.087Z,88.47
2017-05-04T00:15:30.176Z,88.09
2017-05-04T00:15:40.270Z,87.99
2017-05-04T00:15:50.083Z,87.99
2017-05-04T00:15:59.600Z,87.99
2017-05-04T00:16:09.399Z,87.99
2017-05-04T00:16:19.203Z,88.09
2017-05-04T00:16:29.293Z,88.18
2017-05-04T00:16:39.375Z,88.09
2017-05-04T00:16:49.474Z,88.09
2017-05-04T00:16:59.278Z,88.18
2017-05-04T00:17:09.087Z,88.37
2017-05-04T00:17:19.176Z,88.28
2017-05-04T00:17:29.262Z,88.37
2017-05-04T00:17:39.365Z,88.56
2017-05-04T00:17:49.454Z,88.84
2017-05-04T00:17:59.549Z,89.03
2017-05-04T00:18:09.642Z,89.13
2017-05-04T00:18:19.734Z,88.94
2017-05-04T00:18:29.825Z,88.84
2017-05-04T00:18:39.919Z,89.03
2017-05-04T00:18:50.032Z,89.22
2017-05-04T00:18:59.552Z,89.51
2017-05-04T00:19:09.656Z,89.6
2017-05-04T00:19:19.755Z,89.51
2017-05-04T00:19:29.844Z,89.41
2017-05-04T00:19:39.936Z,89.22
2017-05-04T00:19:49.754Z,89.03
2017-05-04T00:19:59.846Z,89.03
2017-05-04T00:20:09.933Z,88.94
2017-05-04T00:20:20.024Z,88.94
2017-05-04T00:20:29.825Z,88.65
2017-05-04T00:20:39.913Z,88.37
2017-05-04T00:20:50.012Z,88.18
2017-05-04T00:21:00.102Z,87.9
2017-05-04T00:21:10.196Z,87.71
2017-05-04T00:21:20.005Z,87.9
2017-05-04T00:21:30.096Z,88.18
2017-05-04T00:21:40.186Z,88.28
2017-05-04T00:21:49.982Z,88.18
2017-05-04T00:21:59.788Z,88.28
2017-05-04T00:22:09.872Z,88.28
2017-05-04T00:22:19.679Z,88.18
2017-05-04T00:22:29.773Z,87.9
2017-05-04T00:22:39.577Z,87.99
2017-05-04T00:22:49.666Z,87.99
2017-05-04T00:22:59.758Z,87.99
2017-05-04T00:23:09.848Z,87.81
2017-05-04T00:23:19.943Z,87.81
2017-05-04T00:23:29.461Z,87.62
2017-05-04T00:23:39.293Z,87.62
2017-05-04T00:23:49.406Z,87.62
2017-05-04T00:23:59.210Z,87.62
2017-05-04T00:24:09.304Z,87.52
2017-05-04T00:24:19.110Z,87.24
2017-05-04T00:24:28.922Z,87.24
2017-05-04T00:24:39.006Z,87.15
2017-05-04T00:24:49.102Z,87.05
2017-05-04T00:24:59.211Z,87.05
2017-05-04T00:25:09.305Z,87.05
2017-05-04T00:25:19.388Z,86.96
2017-05-04T00:25:29.484Z,86.96
2017-05-04T00:25:39.296Z,86.87
2017-05-04T00:25:49.382Z,86.87
2017-05-04T00:25:59.184Z,86.96
2017-05-04T00:26:09.284Z,86.96
2017-05-04T00:26:19.082Z,86.96
2017-05-04T00:26:29.184Z,86.87
2017-05-04T00:26:39.276Z,86.87
2017-05-04T00:26:49.368Z,86.77
2017-05-04T00:26:59.167Z,86.68
2017-05-04T00:27:09.255Z,86.68
2017-05-04T00:27:19.347Z,86.77
2017-05-04T00:27:29.443Z,86.87
2017-05-04T00:27:39.543Z,87.15
2017-05-04T00:27:49.627Z,87.24
2017-05-04T00:27:59.710Z,87.15
2017-05-04T00:28:09.516Z,87.15
2017-05-04T00:28:19.324Z,87.15
2017-05-04T00:28:29.131Z,87.15
2017-05-04T00:28:39.218Z,87.05
2017-05-04T00:28:49.318Z,86.96
2017-05-04T00:28:59.123Z,86.68
2017-05-04T00:29:09.215Z,86.49
2017-05-04T00:29:18.744Z,86.58
2017-05-04T00:29:28.558Z,86.4
2017-05-04T00:29:38.649Z,86.02
2017-05-04T00:29:48.740Z,85.45
2017-05-04T00:29:58.253Z,84.69
2017-05-04T00:30:08.347Z,84.13
2017-05-04T00:30:18.443Z,83.65
2017-05-04T00:30:28.244Z,83.28
2017-05-04T00:30:38.072Z,82.81
2017-05-04T00:30:47.587Z,82.43
2017-05-04T00:30:57.681Z,82.06
2017-05-04T00:31:07.766Z,81.58
2017-05-04T00:31:17.856Z,81.11
2017-05-04T00:31:27.948Z,80.73
2017-05-04T00:31:38.036Z,80.36
2017-05-04T00:31:47.839Z,80.07
2017-05-04T00:31:57.925Z,79.79
2017-05-04T00:32:08.030Z,79.6
2017-05-04T00:32:17.837Z,79.5
2017-05-04T00:32:27.928Z,79.41
2017-05-04T00:32:38.029Z,79.41
2017-05-04T00:32:47.547Z,79.6
2017-05-04T00:32:57.665Z,79.79
2017-05-04T00:33:07.502Z,79.98
2017-05-04T00:33:17.306Z,80.17
2017-05-04T00:33:27.400Z,80.36
2017-05-04T00:33:37.203Z,80.45
2017-05-04T00:33:47.299Z,80.45
2017-05-04T00:33:57.397Z,80.54
2017-05-04T00:34:07.489Z,80.54
2017-05-04T00:34:17.015Z,80.54
2017-05-04T00:34:27.105Z,80.45
2017-05-04T00:34:36.905Z,80.45
2017-05-04T00:34:47.002Z,80.45
2017-05-04T00:34:56.806Z,80.64
2017-05-04T00:35:06.898Z,80.83
2017-05-04T00:35:16.993Z,80.92
2017-05-04T00:35:27.084Z,80.54
2017-05-04T00:35:37.188Z,80.17
2017-05-04T00:35:47.278Z,79.88
2017-05-04T00:35:57.367Z,79.6
2017-05-04T00:36:07.174Z,79.41
2017-05-04T00:36:17.281Z,79.13
2017-05-04T00:36:27.379Z,78.85
2017-05-04T00:36:36.896Z,78.38
2017-05-04T00:36:46.984Z,77.81
2017-05-04T00:36:56.511Z,77.44
2017-05-04T00:37:06.602Z,77.15
2017-05-04T00:37:16.415Z,76.68
2017-05-04T00:37:26.501Z,76.21
2017-05-04T00:37:36.611Z,75.36
2017-05-04T00:37:46.414Z,74.41
2017-05-04T00:37:56.218Z,73.47
2017-05-04T00:38:06.306Z,72.62
2017-05-04T00:38:16.394Z,71.68
2017-05-04T00:38:26.486Z,70.92
2017-05-04T00:38:36.577Z,70.17
2017-05-04T00:38:46.678Z,69.32
2017-05-04T00:38:56.483Z,68.57
2017-05-04T00:39:06.294Z,67.91
2017-05-04T00:39:16.388Z,67.15
2017-05-04T00:39:26.481Z,66.49
2017-05-04T00:39:36.588Z,65.83
2017-05-04T00:39:46.675Z,65.36
2017-05-04T00:39:56.510Z,64.98
2017-05-04T00:40:06.601Z,64.61
2017-05-04T00:40:16.701Z,64.42
2017-05-04T00:40:26.786Z,64.23
2017-05-04T00:40:36.584Z,64.14
2017-05-04T00:40:46.389Z,64.04
2017-05-04T00:40:56.482Z,64.04
2017-05-04T00:41:06.570Z,63.95
2017-05-04T00:41:16.660Z,64.14
2017-05-04T00:41:26.751Z,64.23
2017-05-04T00:41:36.877Z,64.23
2017-05-04T00:41:46.970Z,64.32
2017-05-04T00:41:57.057Z,64.14
2017-05-04T00:42:07.148Z,64.04
2017-05-04T00:42:16.972Z,63.85
2017-05-04T00:42:26.777Z,63.66
2017-05-04T00:42:36.584Z,63.47
2017-05-04T00:42:46.681Z,63.38
2017-05-04T00:42:56.481Z,63.29
2017-05-04T00:43:06.574Z,63.19
2017-05-04T00:43:16.094Z,63.1
2017-05-04T00:43:26.217Z,63.19
2017-05-04T00:43:36.032Z,63.47
2017-05-04T00:43:46.129Z,63.76
2017-05-04T00:43:55.935Z,64.04
2017-05-04T00:44:06.030Z,64.14
2017-05-04T00:44:15.841Z,64.32
2017-05-04T00:44:25.645Z,64.42
2017-05-04T00:44:35.735Z,64.51
2017-05-04T00:44:45.548Z,64.51
2017-05-04T00:44:55.063Z,64.51
2017-05-04T00:45:05.155Z,64.51
2017-05-04T00:45:14.671Z,64.51
2017-05-04T00:45:24.470Z,64.51
2017-05-04T00:45:34.562Z,64.51
2017-05-04T00:45:44.646Z,64.61
2017-05-04T00:45:54.445Z,64.61
2017-05-04T00:46:04.539Z,64.7
2017-05-04T00:46:14.341Z,64.79
2017-05-04T00:46:24.146Z,64.89
2017-05-04T00:46:34.239Z,64.89
2017-05-04T00:46:44.039Z,64.61
2017-05-04T00:46:54.136Z,64.14
2017-05-04T00:47:04.233Z,63.66
2017-05-04T00:47:14.039Z,63.29
2017-05-04T00:47:24.124Z,62.91
2017-05-04T00:47:34.230Z,62.53
2017-05-04T00:47:44.332Z,62.15
2017-05-04T00:47:54.424Z,61.68
2017-05-04T00:48:04.519Z,61.3
2017-05-04T00:48:14.032Z,60.93
2017-05-04T00:48:24.120Z,60.46
2017-05-04T00:48:34.218Z,59.99
2017-05-04T00:48:44.318Z,59.51
2017-05-04T00:48:54.411Z,59.14
2017-05-04T00:49:04.507Z,58.57
2017-05-04T00:49:14.602Z,58.19
2017-05-04T00:49:24.694Z,57.62
2017-05-04T00:49:34.498Z,57.15
2017-05-04T00:49:44.583Z,56.59
2017-05-04T00:49:54.669Z,56.12
2017-05-04T00:50:04.791Z,55.55
2017-05-04T00:50:14.309Z,55.08
2017-05-04T00:50:24.111Z,54.61
2017-05-04T00:50:33.628Z,54.14
2017-05-04T00:50:43.715Z,53.66
2017-05-04T00:50:53.804Z,53.19
2017-05-04T00:51:03.604Z,52.72
2017-05-04T00:51:13.401Z,52.34
2017-05-04T00:51:23.203Z,51.97
2017-05-04T00:51:32.722Z,51.78
2017-05-04T00:51:42.529Z,51.59
2017-05-04T00:51:52.332Z,51.21
2017-05-04T00:52:02.421Z,51.03
2017-05-04T00:52:12.221Z,50.55
2017-05-04T00:52:21.449Z,50.08
2017-05-04T00:52:31.537Z,49.42
2017-05-04T00:52:41.633Z,48.85
2017-05-04T00:52:51.729Z,48.1
2017-05-04T00:53:01.823Z,47.34
2017-05-04T00:53:11.625Z,46.59
2017-05-04T00:53:21.147Z,45.84
2017-05-04T00:53:31.243Z,45.18
2017-05-04T00:53:41.338Z,44.42
2017-05-04T00:53:51.440Z,43.76
2017-05-04T00:54:01.528Z,43.01
2017-05-04T00:54:11.613Z,42.35
2017-05-04T00:54:21.699Z,41.59
2017-05-04T00:54:31.507Z,40.93
2017-05-04T00:54:41.599Z,40.27
2017-05-04T00:54:51.693Z,39.7
2017-05-04T00:55:01.806Z,39.14
2017-05-04T00:55:11.612Z,38.57
2017-05-04T00:55:21.707Z,38.01
2017-05-04T00:55:31.793Z,37.54
2017-05-04T00:55:41.886Z,37.07
2017-05-04T00:55:51.981Z,36.69
2017-05-04T00:56:02.070Z,36.12
2017-05-04T00:56:11.874Z,35.84
2017-05-04T00:56:21.966Z,35.46
2017-05-04T00:56:32.053Z,35.18
2017-05-04T00:56:42.138Z,34.89
2017-05-04T00:56:52.235Z,34.7
2017-05-04T00:57:02.327Z,34.42
2017-05-04T00:57:11.840Z,34.23
2017-05-04T00:57:21.931Z,34.05
2017-05-04T00:57:32.028Z,33.86
2017-05-04T00:57:42.125Z,33.76
2017-05-04T00:57:52.224Z,33.58
2017-05-04T00:58:02.025Z,33.48
2017-05-04T00:58:12.112Z,33.29
2017-05-04T00:58:22.201Z,33.2
2017-05-04T00:58:32.298Z,33.11
2017-05-04T00:58:42.426Z,33.11
2017-05-04T00:58:51.941Z,33.01
2017-05-04T00:59:01.742Z,33.01
2017-05-04T00:59:11.831Z,32.92
2017-05-04T00:59:21.638Z,32.92
2017-05-04T00:59:31.727Z,32.92
2017-05-04T00:59:41.813Z,32.82
2017-05-04T00:59:51.918Z,32.82
2017-05-04T01:00:01.718Z,32.82
2017-05-04T01:00:11.518Z,32.82
2017-05-04T01:00:21.325Z,32.82
2017-05-04T01:00:31.420Z,32.82
2017-05-04T01:00:41.221Z,32.92
2017-05-04T01:00:51.318Z,32.92
2017-05-04T01:01:01.403Z,32.92
2017-05-04T01:01:11.494Z,32.92
2017-05-04T01:01:21.584Z,32.92
2017-05-04T01:01:31.392Z,33.01
2017-05-04T01:01:41.493Z,33.01
2017-05-04T01:01:51.612Z,33.01
2017-05-04T01:02:01.704Z,33.01
2017-05-04T01:02:11.795Z,33.01
2017-05-04T01:02:21.600Z,33.11
2017-05-04T01:02:31.683Z,33.11
2017-05-04T01:02:41.790Z,33.11
2017-05-04T01:02:51.892Z,33.11
2017-05-04T01:03:01.983Z,33.11
2017-05-04T01:03:12.087Z,33.2
2017-05-04T01:03:22.181Z,33.2
2017-05-04T01:03:31.976Z,33.29
2017-05-04T01:03:42.104Z,33.29
2017-05-04T01:03:52.197Z,33.29
2017-05-04T01:04:02.287Z,33.39
2017-05-04T01:04:12.378Z,33.39
2017-05-04T01:04:21.607Z,33.29
2017-05-04T01:04:31.696Z,33.29
2017-05-04T01:04:41.510Z,33.2
2017-05-04T01:04:51.600Z,33.2
2017-05-04T01:05:01.702Z,33.11
2017-05-04T01:05:11.514Z,33.11
2017-05-04T01:05:21.601Z,33.01
2017-05-04T01:05:31.683Z,33.01
2017-05-04T01:05:41.801Z,33.01
2017-05-04T01:05:51.891Z,33.01
2017-05-04T01:06:01.405Z,33.01
2017-05-04T01:06:11.500Z,33.01
2017-05-04T01:06:21.311Z,33.11
2017-05-04T01:06:31.409Z,33.12
2017-05-04T01:06:41.503Z,33.03
2017-05-04T01:06:51.591Z,33.01
2017-05-04T01:07:01.425Z,33.03
2017-05-04T01:07:11.226Z,32.92
2017-05-04T01:07:21.315Z,32.92
2017-05-04T01:07:31.406Z,32.92
2017-05-04T01:07:41.499Z,32.92
2017-05-04T01:07:51.589Z,32.82
2017-05-04T01:08:01.683Z,32.84
2017-05-04T01:08:11.518Z,32.82
2017-05-04T01:08:21.325Z,32.82
2017-05-04T01:08:31.414Z,32.84
2017-05-04T01:08:41.231Z,32.74
2017-05-04T01:08:51.037Z,32.82
2017-05-04T01:09:01.130Z,32.82
2017-05-04T01:09:10.959Z,32.92
2017-05-04T01:09:21.051Z,32.92
2017-05-04T01:09:31.145Z,32.92
2017-05-04T01:09:41.241Z,33.01
2017-05-04T01:09:51.051Z,33.01
2017-05-04T01:10:01.139Z,33.01
2017-05-04T01:10:10.081Z,33.01
2017-05-04T01:10:20.173Z,32.92
2017-05-04T01:10:30.272Z,32.92
2017-05-04T01:10:40.362Z,32.82
2017-05-04T01:10:50.455Z,32.63
2017-05-04T01:11:00.542Z,32.54
2017-05-04T01:11:10.346Z,32.44
2017-05-04T01:11:20.435Z,32.35
2017-05-04T01:11:29.658Z,32.25
2017-05-04T01:11:39.748Z,32.16
2017-05-04T01:11:49.837Z,32.16
2017-05-04T01:11:59.929Z,32.16
2017-05-04T01:12:10.063Z,32.16
2017-05-04T01:12:19.863Z,32.25
2017-05-04T01:12:29.675Z,32.35
2017-05-04T01:12:39.773Z,32.44
2017-05-04T01:12:49.862Z,32.54
2017-05-04T01:12:59.958Z,32.63
2017-05-04T01:13:09.763Z,32.73
2017-05-04T01:13:18.995Z,32.73
2017-05-04T01:13:28.806Z,32.92
2017-05-04T01:13:38.904Z,33.01
2017-05-04T01:13:49.017Z,33.2
2017-05-04T01:13:59.106Z,33.39
2017-05-04T01:14:09.203Z,33.48
2017-05-04T01:14:18.722Z,33.67
2017-05-04T01:14:28.525Z,33.86
2017-05-04T01:14:38.623Z,33.95
2017-05-04T01:14:48.727Z,34.14
2017-05-04T01:14:58.822Z,34.23
2017-05-04T01:15:08.912Z,34.42
2017-05-04T01:15:19.005Z,34.42
2017-05-04T01:15:29.100Z,34.52
2017-05-04T01:15:38.901Z,34.61
2017-05-04T01:15:48.994Z,34.7
2017-05-04T01:15:59.084Z,34.7
2017-05-04T01:16:09.181Z,34.8
2017-05-04T01:16:19.296Z,34.89
2017-05-04T01:16:29.386Z,34.99
2017-05-04T01:16:39.474Z,35.08
2017-05-04T01:16:49.559Z,35.18
2017-05-04T01:16:59.654Z,35.36
2017-05-04T01:17:09.755Z,35.46
2017-05-04T01:17:19.849Z,35.55
2017-05-04T01:17:29.942Z,35.74
2017-05-04T01:17:40.042Z,35.84
2017-05-04T01:17:50.140Z,35.93
2017-05-04T01:18:00.231Z,36.03
2017-05-04T01:18:09.748Z,36.12
2017-05-04T01:18:19.553Z,36.12
2017-05-04T01:18:29.641Z,36.22
2017-05-04T01:18:39.732Z,36.22
2017-05-04T01:18:49.821Z,36.22
2017-05-04T01:18:59.622Z,36.31
2017-05-04T01:19:09.706Z,36.31
2017-05-04T01:19:19.511Z,36.4
2017-05-04T01:19:29.600Z,36.4
2017-05-04T01:19:39.691Z,36.4
2017-05-04T01:19:49.786Z,36.4
2017-05-04T01:19:59.877Z,36.4
2017-05-04T01:20:09.680Z,36.4
2017-05-04T01:20:19.767Z,36.4
2017-05-04T01:20:29.865Z,36.31
2017-05-04T01:20:39.961Z,36.4
2017-05-04T01:20:50.052Z,36.4
2017-05-04T01:21:00.141Z,36.5
2017-05-04T01:21:10.231Z,36.69
2017-05-04T01:21:20.313Z,36.78
2017-05-04T01:21:30.405Z,36.88
2017-05-04T01:21:40.207Z,37.07
2017-05-04T01:21:50.331Z,37.16
2017-05-04T01:22:00.423Z,37.25
2017-05-04T01:22:10.227Z,37.35
2017-05-04T01:22:20.317Z,37.54
2017-05-04T01:22:30.117Z,37.63
2017-05-04T01:22:40.205Z,37.73
2017-05-04T01:22:50.005Z,37.73
2017-05-04T01:22:59.817Z,37.82
2017-05-04T01:23:09.909Z,38.01
2017-05-04T01:23:19.997Z,38.2
2017-05-04T01:23:30.089Z,38.29
2017-05-04T01:23:39.893Z,38.48
2017-05-04T01:23:49.695Z,38.67
2017-05-04T01:23:59.780Z,38.85
2017-05-04T01:24:09.873Z,39.04
2017-05-04T01:24:19.969Z,39.23
2017-05-04T01:24:30.060Z,39.51
2017-05-04T01:24:40.148Z,39.7
2017-05-04T01:24:50.240Z,39.89
2017-05-04T01:25:00.331Z,40.08
2017-05-04T01:25:10.421Z,40.18
2017-05-04T01:25:20.508Z,40.36
2017-05-04T01:25:30.601Z,40.46
2017-05-04T01:25:40.697Z,40.55
2017-05-04T01:25:50.791Z,40.74
2017-05-04T01:26:00.880Z,40.84
2017-05-04T01:26:10.974Z,41.03
2017-05-04T01:26:21.066Z,41.12
2017-05-04T01:26:31.160Z,41.22
2017-05-04T01:26:41.250Z,41.31
2017-05-04T01:26:51.339Z,41.4
2017-05-04T01:27:01.144Z,41.5
2017-05-04T01:27:10.371Z,41.59
2017-05-04T01:27:20.457Z,41.69
2017-05-04T01:27:30.551Z,41.69
2017-05-04T01:27:40.643Z,41.69
2017-05-04T01:27:50.732Z,41.69
2017-05-04T01:28:00.819Z,41.69
2017-05-04T01:28:10.947Z,41.78
2017-05-04T01:28:21.043Z,41.88
2017-05-04T01:28:31.138Z,41.97
2017-05-04T01:28:40.937Z,42.07
2017-05-04T01:28:51.025Z,42.16
2017-05-04T01:29:01.121Z,42.16
2017-05-04T01:29:10.928Z,42.16
2017-05-04T01:29:21.023Z,42.16
2017-05-04T01:29:30.825Z,42.16
2017-05-04T01:29:40.634Z,42.07
2017-05-04T01:29:50.156Z,42.07
2017-05-04T01:29:59.978Z,42.07
2017-05-04T01:30:09.519Z,42.07
2017-05-04T01:30:19.611Z,42.16
2017-05-04T01:30:29.701Z,42.16
2017-05-04T01:30:39.788Z,42.25
2017-05-04T01:30:49.882Z,42.25
2017-05-04T01:30:59.968Z,42.44
2017-05-04T01:31:10.063Z,42.54
2017-05-04T01:31:20.148Z,42.54
2017-05-04T01:31:30.242Z,42.63
2017-05-04T01:31:39.759Z,42.82
2017-05-04T01:31:49.843Z,42.91
2017-05-04T01:31:59.647Z,43.01
2017-05-04T01:32:09.739Z,43.19
2017-05-04T01:32:19.825Z,43.29
2017-05-04T01:32:29.914Z,43.48
2017-05-04T01:32:39.719Z,43.57
2017-05-04T01:32:49.525Z,43.76
2017-05-04T01:32:59.609Z,43.85
2017-05-04T01:33:09.710Z,44.04
2017-05-04T01:33:19.806Z,44.14
2017-05-04T01:33:29.623Z,44.14
2017-05-04T01:33:39.715Z,44.14
2017-05-04T01:33:49.804Z,44.14
2017-05-04T01:33:59.897Z,44.14
2017-05-04T01:34:09.996Z,44.23
2017-05-04T01:34:19.518Z,44.32
2017-05-04T01:34:29.612Z,44.42
2017-05-04T01:34:39.704Z,44.51
2017-05-04T01:34:49.796Z,44.61
2017-05-04T01:34:59.895Z,44.61
2017-05-04T01:35:09.702Z,44.51
2017-05-04T01:35:18.938Z,44.42
2017-05-04T01:35:29.020Z,44.32
2017-05-04T01:35:38.825Z,44.14
2017-05-04T01:35:48.916Z,44.04
2017-05-04T01:35:58.715Z,43.85
2017-05-04T01:36:08.805Z,43.76
2017-05-04T01:36:18.900Z,43.57
2017-05-04T01:36:28.989Z,43.38
2017-05-04T01:36:39.082Z,43.29
2017-05-04T01:36:49.179Z,43.1
2017-05-04T01:36:59.269Z,42.91
2017-05-04T01:37:09.361Z,42.63
2017-05-04T01:37:18.880Z,42.46
2017-05-04T01:37:28.971Z,42.27
2017-05-04T01:37:38.780Z,42.16
2017-05-04T01:37:48.875Z,42.07
2017-05-04T01:37:58.685Z,41.97
2017-05-04T01:38:08.797Z,41.97
2017-05-04T01:38:18.321Z,41.97
2017-05-04T01:38:28.415Z,42.07
2017-05-04T01:38:38.514Z,42.35
2017-05-04T01:38:48.602Z,42.72
2017-05-04T01:38:58.692Z,43.19
2017-05-04T01:39:08.782Z,43.66
2017-05-04T01:39:18.872Z,44.14
2017-05-04T01:39:28.966Z,44.61
2017-05-04T01:39:39.054Z,44.99
2017-05-04T01:39:49.145Z,45.46
2017-05-04T01:39:59.241Z,45.84
2017-05-04T01:40:09.331Z,46.03
2017-05-04T01:40:19.136Z,45.93
2017-05-04T01:40:29.225Z,45.74
2017-05-04T01:40:39.042Z,45.36
2017-05-04T01:40:49.130Z,44.89
2017-05-04T01:40:58.932Z,44.51
2017-05-04T01:41:08.739Z,44.14
2017-05-04T01:41:18.835Z,43.66
2017-05-04T01:41:28.636Z,43.38
2017-05-04T01:41:38.726Z,43.01
2017-05-04T01:41:48.539Z,42.72
2017-05-04T01:41:58.627Z,42.54
2017-05-04T01:42:08.723Z,42.25
2017-05-04T01:42:18.527Z,42.16
2017-05-04T01:42:28.621Z,42.07
2017-05-04T01:42:38.709Z,42.07
2017-05-04T01:42:48.840Z,41.97
2017-05-04T01:42:58.936Z,41.97
2017-05-04T01:43:09.030Z,41.97
2017-05-04T01:43:19.121Z,41.88
2017-05-04T01:43:29.214Z,41.88
2017-05-04T01:43:39.014Z,41.78
2017-05-04T01:43:49.106Z,41.59
2017-05-04T01:43:59.195Z,41.5
2017-05-04T01:44:09.286Z,41.31
2017-05-04T01:44:19.405Z,41.12
2017-05-04T01:44:29.491Z,41.03
2017-05-04T01:44:39.584Z,40.84
2017-05-04T01:44:49.391Z,40.65
2017-05-04T01:44:59.475Z,40.55
2017-05-04T01:45:09.569Z,40.46
2017-05-04T01:45:19.372Z,40.36
2017-05-04T01:45:29.468Z,40.36
2017-05-04T01:45:39.560Z,40.55
2017-05-04T01:45:49.072Z,40.65
2017-05-04T01:45:58.879Z,40.74
2017-05-04T01:46:08.972Z,40.84
2017-05-04T01:46:19.070Z,40.93
2017-05-04T01:46:29.159Z,41.12
2017-05-04T01:46:39.248Z,41.4
2017-05-04T01:46:49.336Z,41.78
2017-05-04T01:46:59.429Z,42.16
2017-05-04T01:47:09.522Z,42.63
2017-05-04T01:47:19.321Z,43.1
2017-05-04T01:47:29.441Z,43.57
2017-05-04T01:47:39.250Z,44.14
2017-05-04T01:47:49.350Z,44.61
2017-05-04T01:47:59.444Z,45.08
2017-05-04T01:48:09.543Z,45.46
2017-05-04T01:48:19.341Z,45.84
2017-05-04T01:48:29.440Z,46.22
2017-05-04T01:48:39.543Z,46.59
2017-05-04T01:48:49.643Z,46.97
2017-05-04T01:48:59.738Z,47.25
2017-05-04T01:49:09.830Z,47.63
2017-05-04T01:49:19.920Z,48.1
2017-05-04T01:49:30.023Z,48.47
2017-05-04T01:49:40.119Z,48.95
2017-05-04T01:49:50.211Z,49.42
2017-05-04T01:50:00.302Z,49.89
2017-05-04T01:50:09.816Z,50.46
2017-05-04T01:50:19.613Z,50.93
2017-05-04T01:50:29.707Z,51.5
2017-05-04T01:50:39.794Z,52.25
2017-05-04T01:50:49.883Z,52.91
2017-05-04T01:50:59.679Z,53.29
2017-05-04T01:51:09.767Z,53.47
2017-05-04T01:51:19.573Z,53.47
2017-05-04T01:51:29.658Z,53.57
2017-05-04T01:51:39.469Z,53.66
2017-05-04T01:51:49.562Z,53.95
2017-05-04T01:51:59.655Z,53.95
2017-05-04T01:52:09.480Z,54.14
2017-05-04T01:52:19.574Z,54.42
2017-05-04T01:52:29.670Z,54.8
2017-05-04T01:52:39.760Z,55.27
2017-05-04T01:52:49.852Z,55.65
2017-05-04T01:52:59.942Z,56.12
2017-05-04T01:53:09.749Z,56.4
2017-05-04T01:53:19.555Z,56.68
2017-05-04T01:53:29.647Z,57.15
2017-05-04T01:53:39.740Z,57.91
2017-05-04T01:53:49.829Z,58.76
2017-05-04T01:53:59.925Z,59.51
2017-05-04T01:54:10.021Z,60.27
2017-05-04T01:54:19.827Z,61.11
2017-05-04T01:54:29.925Z,62.06
2017-05-04T01:54:40.016Z,62.91
2017-05-04T01:54:50.110Z,63.38
2017-05-04T01:54:59.910Z,63.95
2017-05-04T01:55:09.707Z,64.32
2017-05-04T01:55:19.797Z,64.89
2017-05-04T01:55:29.885Z,65.08
2017-05-04T01:55:39.977Z,64.79
2017-05-04T01:55:49.793Z,64.42
2017-05-04T01:55:59.592Z,64.32
2017-05-04T01:56:09.721Z,64.23
2017-05-04T01:56:19.806Z,64.14
2017-05-04T01:56:29.898Z,64.04
2017-05-04T01:56:39.989Z,63.95
2017-05-04T01:56:50.081Z,63.76
2017-05-04T01:57:00.172Z,63.85
2017-05-04T01:57:10.265Z,64.04
2017-05-04T01:57:20.357Z,64.23
2017-05-04T01:57:30.160Z,64.23
2017-05-04T01:57:40.254Z,64.32
2017-05-04T01:57:50.064Z,64.32
2017-05-04T01:57:59.877Z,64.51
2017-05-04T01:58:09.968Z,65.08
2017-05-04T01:58:20.061Z,65.92
2017-05-04T01:58:30.152Z,67.25
2017-05-04T01:58:40.244Z,69.23
2017-05-04T01:58:50.059Z,70.54
2017-05-04T01:59:00.151Z,71.77
2017-05-04T01:59:10.245Z,73.57
2017-05-04T01:59:20.048Z,76.11
2017-05-04T01:59:30.149Z,78.28
2017-05-04T01:59:40.243Z,80.17
2017-05-04T01:59:50.054Z,82.24
2017-05-04T01:59:59.858Z,83.94
2017-05-04T02:00:09.657Z,85.07
2017-05-04T02:00:19.742Z,85.92
2017-05-04T02:00:29.836Z,86.21
2017-05-04T02:00:39.352Z,86.21
2017-05-04T02:00:49.445Z,84.98
2017-05-04T02:00:59.534Z,84.6
2017-05-04T02:01:09.637Z,84.13
2017-05-04T02:01:19.730Z,83.65
2017-05-04T02:01:29.843Z,83.18
2017-05-04T02:01:39.641Z,82.9
2017-05-04T02:01:49.735Z,82.71
2017-05-04T02:01:59.537Z,82.53
2017-05-04T02:02:09.349Z,82.15
2017-05-04T02:02:19.444Z,81.87
2017-05-04T02:02:29.246Z,81.58
2017-05-04T02:02:39.069Z,81.21
2017-05-04T02:02:49.156Z,80.83
2017-05-04T02:02:59.251Z,80.54
2017-05-04T02:03:09.345Z,80.54
2017-05-04T02:03:19.431Z,80.54
2017-05-04T02:03:29.239Z,80.73
2017-05-04T02:03:38.759Z,81.21
2017-05-04T02:03:48.850Z,81.3
2017-05-04T02:03:58.945Z,80.83
2017-05-04T02:04:09.045Z,80.07
2017-05-04T02:04:18.850Z,79.32
2017-05-04T02:04:28.654Z,78.66
2017-05-04T02:04:38.743Z,78.09
2017-05-04T02:04:48.548Z,77.62
2017-05-04T02:04:58.665Z,77.25
2017-05-04T02:05:08.752Z,76.96
2017-05-04T02:05:18.273Z,76.68
2017-05-04T02:05:28.369Z,76.58
2017-05-04T02:05:38.171Z,76.77
2017-05-04T02:05:47.977Z,76.87
2017-05-04T02:05:58.062Z,77.06
2017-05-04T02:06:08.148Z,77.25
2017-05-04T02:06:17.667Z,77.34
2017-05-04T02:06:27.757Z,77.37
2017-05-04T02:06:37.276Z,77.34
2017-05-04T02:06:47.362Z,77.34
2017-05-04T02:06:57.448Z,77.15
2017-05-04T02:07:07.542Z,76.02
2017-05-04T02:07:17.063Z,75.02
2017-05-04T02:07:26.870Z,74.07
2017-05-04T02:07:36.965Z,73.41
2017-05-04T02:07:47.056Z,72.85
2017-05-04T02:07:57.147Z,72.19
2017-05-04T02:08:07.239Z,71.53
2017-05-04T02:08:17.332Z,71.06
2017-05-04T02:08:27.430Z,70.68
2017-05-04T02:08:37.529Z,70.2
2017-05-04T02:08:47.650Z,70.11
2017-05-04T02:08:57.740Z,70.58